sensor_id;sensor_type;location;lat;lon;timestamp;temperature;humidity
6333;DHT22;3199;49.102;8.856;2024-02-26T00:01:41;8.20;99.90
6333;DHT22;3199;49.102;8.856;2024-02-26T00:04:09;8.10;99.90
6333;DHT22;3199;49.102;8.856;2024-02-26T00:06:35;8.10;99.90
6333;DHT22;3199;49.102;8.856;2024-02-26T00:09:01;8.10;99.90
6333;DHT22;3199;49.102;8.856;2024-02-26T00:11:28;8.00;99.90
6333;DHT22;3199;49.102;8.856;2024-02-26T00:13:53;8.10;99.80
6333;DHT22;3199;49.102;8.856;2024-02-26T00:16:19;8.10;99.50
6333;DHT22;3199;49.102;8.856;2024-02-26T00:18:44;8.10;99.50
6333;DHT22;3199;49.102;8.856;2024-02-26T00:21:10;8.20;99.30
6333;DHT22;3199;49.102;8.856;2024-02-26T00:23:35;8.20;99.20
6333;DHT22;3199;49.102;8.856;2024-02-26T00:26:01;8.20;99.20
6333;DHT22;3199;49.102;8.856;2024-02-26T00:28:26;8.20;99.20
6333;DHT22;3199;49.102;8.856;2024-02-26T00:30:52;8.20;99.20
6333;DHT22;3199;49.102;8.856;2024-02-26T00:33:21;8.20;99.10
6333;DHT22;3199;49.102;8.856;2024-02-26T00:35:47;8.20;99.20
6333;DHT22;3199;49.102;8.856;2024-02-26T00:38:13;8.30;99.20
6333;DHT22;3199;49.102;8.856;2024-02-26T00:40:39;8.30;99.10
6333;DHT22;3199;49.102;8.856;2024-02-26T00:43:06;8.30;99.10
6333;DHT22;3199;49.102;8.856;2024-02-26T00:45:31;8.30;99.10
6333;DHT22;3199;49.102;8.856;2024-02-26T00:47:58;8.30;99.10
6333;DHT22;3199;49.102;8.856;2024-02-26T00:50:23;8.30;99.10
6333;DHT22;3199;49.102;8.856;2024-02-26T00:52:50;8.30;99.30
6333;DHT22;3199;49.102;8.856;2024-02-26T00:55:15;8.30;99.40
6333;DHT22;3199;49.102;8.856;2024-02-26T00:57:41;8.30;99.30
6333;DHT22;3199;49.102;8.856;2024-02-26T01:00:07;8.30;99.20
6333;DHT22;3199;49.102;8.856;2024-02-26T01:02:36;8.30;99.20
6333;DHT22;3199;49.102;8.856;2024-02-26T01:05:02;8.30;99.20
6333;DHT22;3199;49.102;8.856;2024-02-26T01:07:28;8.30;99.10
6333;DHT22;3199;49.102;8.856;2024-02-26T01:09:53;8.30;99.00
6333;DHT22;3199;49.102;8.856;2024-02-26T01:12:19;8.40;99.00
6333;DHT22;3199;49.102;8.856;2024-02-26T01:14:44;8.40;99.30
6333;DHT22;3199;49.102;8.856;2024-02-26T01:17:10;8.30;99.60
6333;DHT22;3199;49.102;8.856;2024-02-26T01:19:35;8.30;99.90
6333;DHT22;3199;49.102;8.856;2024-02-26T01:22:01;8.20;99.90
6333;DHT22;3199;49.102;8.856;2024-02-26T01:24:26;8.20;99.90
6333;DHT22;3199;49.102;8.856;2024-02-26T01:26:52;8.20;99.90
6333;DHT22;3199;49.102;8.856;2024-02-26T01:29:18;8.20;99.90
6333;DHT22;3199;49.102;8.856;2024-02-26T01:31:43;8.10;99.90
6333;DHT22;3199;49.102;8.856;2024-02-26T01:34:09;8.10;99.80
6333;DHT22;3199;49.102;8.856;2024-02-26T01:36:34;8.20;99.80
6333;DHT22;3199;49.102;8.856;2024-02-26T01:39:00;8.10;99.90
6333;DHT22;3199;49.102;8.856;2024-02-26T01:41:25;8.20;99.90
6333;DHT22;3199;49.102;8.856;2024-02-26T01:43:51;8.20;99.90
6333;DHT22;3199;49.102;8.856;2024-02-26T01:46:17;8.30;99.90
6333;DHT22;3199;49.102;8.856;2024-02-26T01:48:44;8.30;99.90
6333;DHT22;3199;49.102;8.856;2024-02-26T01:51:12;8.30;99.90
6333;DHT22;3199;49.102;8.856;2024-02-26T01:53:38;8.30;99.90
6333;DHT22;3199;49.102;8.856;2024-02-26T01:56:04;8.40;99.90
6333;DHT22;3199;49.102;8.856;2024-02-26T01:58:30;8.40;99.90
6333;DHT22;3199;49.102;8.856;2024-02-26T02:00:57;8.40;99.90
6333;DHT22;3199;49.102;8.856;2024-02-26T02:03:23;8.40;99.90
6333;DHT22;3199;49.102;8.856;2024-02-26T02:05:49;8.50;99.90
6333;DHT22;3199;49.102;8.856;2024-02-26T02:08:14;8.60;99.60
6333;DHT22;3199;49.102;8.856;2024-02-26T02:10:42;8.60;99.90
6333;DHT22;3199;49.102;8.856;2024-02-26T02:13:07;8.60;99.90
6333;DHT22;3199;49.102;8.856;2024-02-26T02:15:33;8.50;99.90
6333;DHT22;3199;49.102;8.856;2024-02-26T02:17:59;8.40;99.90
6333;DHT22;3199;49.102;8.856;2024-02-26T02:20:31;8.40;99.90
6333;DHT22;3199;49.102;8.856;2024-02-26T02:22:58;8.30;99.90
6333;DHT22;3199;49.102;8.856;2024-02-26T02:25:23;8.30;99.90
6333;DHT22;3199;49.102;8.856;2024-02-26T02:27:49;8.20;99.90
6333;DHT22;3199;49.102;8.856;2024-02-26T02:30:14;8.10;99.90
6333;DHT22;3199;49.102;8.856;2024-02-26T02:32:41;8.00;99.90
6333;DHT22;3199;49.102;8.856;2024-02-26T02:35:07;8.00;99.90
6333;DHT22;3199;49.102;8.856;2024-02-26T02:37:33;7.90;99.90
6333;DHT22;3199;49.102;8.856;2024-02-26T02:39:58;7.90;99.90
6333;DHT22;3199;49.102;8.856;2024-02-26T02:42:24;7.80;99.90
6333;DHT22;3199;49.102;8.856;2024-02-26T02:44:49;7.80;99.90
6333;DHT22;3199;49.102;8.856;2024-02-26T02:47:15;7.80;99.90
6333;DHT22;3199;49.102;8.856;2024-02-26T02:49:40;7.70;99.90
6333;DHT22;3199;49.102;8.856;2024-02-26T02:52:06;7.70;99.90
6333;DHT22;3199;49.102;8.856;2024-02-26T02:54:32;7.70;99.90
6333;DHT22;3199;49.102;8.856;2024-02-26T02:56:57;7.70;99.90
6333;DHT22;3199;49.102;8.856;2024-02-26T02:59:23;7.80;99.90
6333;DHT22;3199;49.102;8.856;2024-02-26T03:01:48;7.80;99.90
6333;DHT22;3199;49.102;8.856;2024-02-26T03:04:14;7.80;99.90
6333;DHT22;3199;49.102;8.856;2024-02-26T03:06:40;7.90;99.90
6333;DHT22;3199;49.102;8.856;2024-02-26T03:09:05;7.90;99.90
6333;DHT22;3199;49.102;8.856;2024-02-26T03:11:31;7.90;99.90
6333;DHT22;3199;49.102;8.856;2024-02-26T03:13:56;7.90;99.90
6333;DHT22;3199;49.102;8.856;2024-02-26T03:16:22;7.90;99.90
6333;DHT22;3199;49.102;8.856;2024-02-26T03:18:47;7.90;99.90
6333;DHT22;3199;49.102;8.856;2024-02-26T03:21:13;7.90;99.90
6333;DHT22;3199;49.102;8.856;2024-02-26T03:23:38;7.90;99.90
6333;DHT22;3199;49.102;8.856;2024-02-26T03:26:04;7.90;99.90
6333;DHT22;3199;49.102;8.856;2024-02-26T03:28:30;7.90;99.90
6333;DHT22;3199;49.102;8.856;2024-02-26T03:30:58;8.00;99.90
6333;DHT22;3199;49.102;8.856;2024-02-26T03:33:24;8.00;99.90
6333;DHT22;3199;49.102;8.856;2024-02-26T03:35:49;8.00;99.90
6333;DHT22;3199;49.102;8.856;2024-02-26T03:38:15;8.00;99.90
6333;DHT22;3199;49.102;8.856;2024-02-26T03:40:40;8.00;99.90
6333;DHT22;3199;49.102;8.856;2024-02-26T03:43:06;8.00;99.90
6333;DHT22;3199;49.102;8.856;2024-02-26T03:45:33;8.00;99.90
6333;DHT22;3199;49.102;8.856;2024-02-26T03:47:58;8.00;99.90
6333;DHT22;3199;49.102;8.856;2024-02-26T03:50:24;8.00;99.90
6333;DHT22;3199;49.102;8.856;2024-02-26T03:52:49;8.00;99.90
6333;DHT22;3199;49.102;8.856;2024-02-26T03:55:15;8.00;99.90
6333;DHT22;3199;49.102;8.856;2024-02-26T03:57:40;8.00;99.90
6333;DHT22;3199;49.102;8.856;2024-02-26T04:00:07;8.00;99.90
6333;DHT22;3199;49.102;8.856;2024-02-26T04:02:33;8.00;99.90
6333;DHT22;3199;49.102;8.856;2024-02-26T04:04:59;8.00;99.90
6333;DHT22;3199;49.102;8.856;2024-02-26T04:07:25;8.00;99.90
6333;DHT22;3199;49.102;8.856;2024-02-26T04:09:50;8.00;99.90
6333;DHT22;3199;49.102;8.856;2024-02-26T04:12:16;7.90;99.90
6333;DHT22;3199;49.102;8.856;2024-02-26T04:14:41;7.90;99.90
6333;DHT22;3199;49.102;8.856;2024-02-26T04:17:07;7.90;99.90
6333;DHT22;3199;49.102;8.856;2024-02-26T04:19:32;7.90;99.90
6333;DHT22;3199;49.102;8.856;2024-02-26T04:21:58;7.90;99.90
6333;DHT22;3199;49.102;8.856;2024-02-26T04:24:23;7.80;99.90
6333;DHT22;3199;49.102;8.856;2024-02-26T04:26:49;7.90;99.90
6333;DHT22;3199;49.102;8.856;2024-02-26T04:29:15;7.80;99.90
6333;DHT22;3199;49.102;8.856;2024-02-26T04:31:40;7.90;99.90
6333;DHT22;3199;49.102;8.856;2024-02-26T04:34:08;7.90;99.90
6333;DHT22;3199;49.102;8.856;2024-02-26T04:36:33;7.80;99.90
6333;DHT22;3199;49.102;8.856;2024-02-26T04:38:59;7.80;99.90
6333;DHT22;3199;49.102;8.856;2024-02-26T04:41:24;7.80;99.90
6333;DHT22;3199;49.102;8.856;2024-02-26T04:43:50;7.70;99.90
6333;DHT22;3199;49.102;8.856;2024-02-26T04:46:15;7.70;99.90
6333;DHT22;3199;49.102;8.856;2024-02-26T04:48:41;7.70;99.90
6333;DHT22;3199;49.102;8.856;2024-02-26T04:51:07;7.70;99.90
6333;DHT22;3199;49.102;8.856;2024-02-26T04:53:33;7.70;99.90
6333;DHT22;3199;49.102;8.856;2024-02-26T04:55:58;7.70;99.90
6333;DHT22;3199;49.102;8.856;2024-02-26T04:58:24;7.70;99.90
6333;DHT22;3199;49.102;8.856;2024-02-26T05:00:49;7.70;99.90
6333;DHT22;3199;49.102;8.856;2024-02-26T05:03:15;7.80;99.90
6333;DHT22;3199;49.102;8.856;2024-02-26T05:05:43;7.70;99.90
6333;DHT22;3199;49.102;8.856;2024-02-26T05:08:08;7.80;99.90
6333;DHT22;3199;49.102;8.856;2024-02-26T05:10:34;7.70;99.90
6333;DHT22;3199;49.102;8.856;2024-02-26T05:13:04;7.70;99.90
6333;DHT22;3199;49.102;8.856;2024-02-26T05:15:30;7.70;99.90
6333;DHT22;3199;49.102;8.856;2024-02-26T05:17:55;7.60;99.90
6333;DHT22;3199;49.102;8.856;2024-02-26T05:20:21;7.60;99.90
6333;DHT22;3199;49.102;8.856;2024-02-26T05:22:46;7.60;99.90
6333;DHT22;3199;49.102;8.856;2024-02-26T05:25:15;7.50;99.90
6333;DHT22;3199;49.102;8.856;2024-02-26T05:27:41;7.50;99.90
6333;DHT22;3199;49.102;8.856;2024-02-26T05:30:07;7.50;99.90
6333;DHT22;3199;49.102;8.856;2024-02-26T05:32:32;7.50;99.90
6333;DHT22;3199;49.102;8.856;2024-02-26T05:34:58;7.50;99.90
6333;DHT22;3199;49.102;8.856;2024-02-26T05:37:23;7.40;99.90
6333;DHT22;3199;49.102;8.856;2024-02-26T05:39:49;7.50;99.90
6333;DHT22;3199;49.102;8.856;2024-02-26T05:42:14;7.40;99.90
6333;DHT22;3199;49.102;8.856;2024-02-26T05:44:40;7.40;99.90
6333;DHT22;3199;49.102;8.856;2024-02-26T05:47:05;7.30;99.90
6333;DHT22;3199;49.102;8.856;2024-02-26T05:49:31;7.30;99.90
6333;DHT22;3199;49.102;8.856;2024-02-26T05:51:57;7.30;99.90
6333;DHT22;3199;49.102;8.856;2024-02-26T05:54:23;7.30;99.90
6333;DHT22;3199;49.102;8.856;2024-02-26T05:56:48;7.20;99.90
6333;DHT22;3199;49.102;8.856;2024-02-26T05:59:14;7.20;99.90
6333;DHT22;3199;49.102;8.856;2024-02-26T06:01:41;7.10;99.90
6333;DHT22;3199;49.102;8.856;2024-02-26T06:04:06;7.10;99.90
6333;DHT22;3199;49.102;8.856;2024-02-26T06:06:32;7.10;99.90
6333;DHT22;3199;49.102;8.856;2024-02-26T06:08:57;7.10;99.90
6333;DHT22;3199;49.102;8.856;2024-02-26T06:11:23;7.10;99.90
6333;DHT22;3199;49.102;8.856;2024-02-26T06:13:49;7.10;99.90
6333;DHT22;3199;49.102;8.856;2024-02-26T06:16:14;7.10;99.90
6333;DHT22;3199;49.102;8.856;2024-02-26T06:18:40;7.10;99.90
6333;DHT22;3199;49.102;8.856;2024-02-26T06:21:09;7.10;99.90
6333;DHT22;3199;49.102;8.856;2024-02-26T06:23:35;7.20;99.90
6333;DHT22;3199;49.102;8.856;2024-02-26T06:26:00;7.20;99.90
6333;DHT22;3199;49.102;8.856;2024-02-26T06:28:26;7.20;99.90
6333;DHT22;3199;49.102;8.856;2024-02-26T06:30:51;7.20;99.90
6333;DHT22;3199;49.102;8.856;2024-02-26T06:33:18;7.20;99.90
6333;DHT22;3199;49.102;8.856;2024-02-26T06:35:43;7.20;99.90
6333;DHT22;3199;49.102;8.856;2024-02-26T06:38:09;7.30;99.90
6333;DHT22;3199;49.102;8.856;2024-02-26T06:40:36;7.30;99.90
6333;DHT22;3199;49.102;8.856;2024-02-26T06:43:02;7.20;99.90
6333;DHT22;3199;49.102;8.856;2024-02-26T06:45:28;7.30;99.90
6333;DHT22;3199;49.102;8.856;2024-02-26T06:47:53;7.20;99.90
6333;DHT22;3199;49.102;8.856;2024-02-26T06:50:19;7.20;99.90
6333;DHT22;3199;49.102;8.856;2024-02-26T06:52:44;7.20;99.90
6333;DHT22;3199;49.102;8.856;2024-02-26T06:55:11;7.20;99.90
6333;DHT22;3199;49.102;8.856;2024-02-26T06:57:37;7.20;99.90
6333;DHT22;3199;49.102;8.856;2024-02-26T07:00:03;7.20;99.90
6333;DHT22;3199;49.102;8.856;2024-02-26T07:02:29;7.20;99.90
6333;DHT22;3199;49.102;8.856;2024-02-26T07:04:54;7.20;99.90
6333;DHT22;3199;49.102;8.856;2024-02-26T07:07:21;7.20;99.90
6333;DHT22;3199;49.102;8.856;2024-02-26T07:09:48;7.20;99.90
6333;DHT22;3199;49.102;8.856;2024-02-26T07:12:14;7.20;99.90
6333;DHT22;3199;49.102;8.856;2024-02-26T07:14:41;7.20;99.90
6333;DHT22;3199;49.102;8.856;2024-02-26T07:17:07;7.20;99.90
6333;DHT22;3199;49.102;8.856;2024-02-26T07:19:33;7.20;99.90
6333;DHT22;3199;49.102;8.856;2024-02-26T07:21:59;7.30;99.90
6333;DHT22;3199;49.102;8.856;2024-02-26T07:24:27;7.30;99.90
6333;DHT22;3199;49.102;8.856;2024-02-26T07:26:53;7.30;99.90
6333;DHT22;3199;49.102;8.856;2024-02-26T07:29:20;7.30;99.90
6333;DHT22;3199;49.102;8.856;2024-02-26T07:31:47;7.30;99.90
6333;DHT22;3199;49.102;8.856;2024-02-26T07:34:12;7.30;99.90
6333;DHT22;3199;49.102;8.856;2024-02-26T07:36:38;7.40;99.90
6333;DHT22;3199;49.102;8.856;2024-02-26T07:39:04;7.40;99.90
6333;DHT22;3199;49.102;8.856;2024-02-26T07:41:29;7.50;99.90
6333;DHT22;3199;49.102;8.856;2024-02-26T07:43:55;7.50;99.90
6333;DHT22;3199;49.102;8.856;2024-02-26T07:46:20;7.60;99.90
6333;DHT22;3199;49.102;8.856;2024-02-26T07:48:46;7.70;99.90
6333;DHT22;3199;49.102;8.856;2024-02-26T07:51:14;7.80;99.90
6333;DHT22;3199;49.102;8.856;2024-02-26T07:53:40;7.80;99.90
6333;DHT22;3199;49.102;8.856;2024-02-26T07:56:06;7.80;99.90
6333;DHT22;3199;49.102;8.856;2024-02-26T07:58:35;7.90;99.90
6333;DHT22;3199;49.102;8.856;2024-02-26T08:01:00;7.90;99.90
6333;DHT22;3199;49.102;8.856;2024-02-26T08:03:26;7.90;99.90
6333;DHT22;3199;49.102;8.856;2024-02-26T08:05:52;7.90;99.90
6333;DHT22;3199;49.102;8.856;2024-02-26T08:08:17;8.00;99.90
6333;DHT22;3199;49.102;8.856;2024-02-26T08:10:43;8.00;99.90
6333;DHT22;3199;49.102;8.856;2024-02-26T08:13:09;8.00;99.90
6333;DHT22;3199;49.102;8.856;2024-02-26T08:15:35;8.10;99.90
6333;DHT22;3199;49.102;8.856;2024-02-26T08:18:02;8.10;99.90
6333;DHT22;3199;49.102;8.856;2024-02-26T08:20:31;8.00;99.90
6333;DHT22;3199;49.102;8.856;2024-02-26T08:22:57;8.10;99.90
6333;DHT22;3199;49.102;8.856;2024-02-26T08:25:23;8.10;99.90
6333;DHT22;3199;49.102;8.856;2024-02-26T08:27:49;8.20;99.90
6333;DHT22;3199;49.102;8.856;2024-02-26T08:30:15;8.30;99.90
6333;DHT22;3199;49.102;8.856;2024-02-26T08:32:43;8.30;99.90
6333;DHT22;3199;49.102;8.856;2024-02-26T08:35:09;8.40;99.90
6333;DHT22;3199;49.102;8.856;2024-02-26T08:37:35;8.50;99.90
6333;DHT22;3199;49.102;8.856;2024-02-26T08:40:00;8.50;99.90
6333;DHT22;3199;49.102;8.856;2024-02-26T08:42:25;8.50;99.90
6333;DHT22;3199;49.102;8.856;2024-02-26T08:44:51;8.50;99.90
6333;DHT22;3199;49.102;8.856;2024-02-26T08:47:16;8.50;99.90
6333;DHT22;3199;49.102;8.856;2024-02-26T08:49:44;8.50;99.90
6333;DHT22;3199;49.102;8.856;2024-02-26T08:52:09;8.50;99.90
6333;DHT22;3199;49.102;8.856;2024-02-26T08:54:35;8.50;99.90
6333;DHT22;3199;49.102;8.856;2024-02-26T08:57:00;8.50;99.90
6333;DHT22;3199;49.102;8.856;2024-02-26T08:59:26;8.50;99.90
6333;DHT22;3199;49.102;8.856;2024-02-26T09:01:51;8.40;99.90
6333;DHT22;3199;49.102;8.856;2024-02-26T09:04:17;8.40;99.90
6333;DHT22;3199;49.102;8.856;2024-02-26T09:06:42;8.50;99.90
6333;DHT22;3199;49.102;8.856;2024-02-26T09:09:08;8.50;99.90
6333;DHT22;3199;49.102;8.856;2024-02-26T09:11:34;8.60;99.90
6333;DHT22;3199;49.102;8.856;2024-02-26T09:13:59;8.70;99.90
6333;DHT22;3199;49.102;8.856;2024-02-26T09:16:25;8.90;99.90
6333;DHT22;3199;49.102;8.856;2024-02-26T09:18:50;9.20;99.90
6333;DHT22;3199;49.102;8.856;2024-02-26T09:21:16;9.50;99.90
6333;DHT22;3199;49.102;8.856;2024-02-26T09:23:48;9.80;99.90
6333;DHT22;3199;49.102;8.856;2024-02-26T09:26:14;10.00;99.90
6333;DHT22;3199;49.102;8.856;2024-02-26T09:28:39;10.10;99.90
6333;DHT22;3199;49.102;8.856;2024-02-26T09:31:05;10.20;99.90
6333;DHT22;3199;49.102;8.856;2024-02-26T09:33:32;10.20;99.90
6333;DHT22;3199;49.102;8.856;2024-02-26T09:35:57;10.20;99.90
6333;DHT22;3199;49.102;8.856;2024-02-26T09:38:23;10.20;99.90
6333;DHT22;3199;49.102;8.856;2024-02-26T09:40:49;10.30;99.90
6333;DHT22;3199;49.102;8.856;2024-02-26T09:43:17;10.40;99.90
6333;DHT22;3199;49.102;8.856;2024-02-26T09:45:46;10.50;99.90
6333;DHT22;3199;49.102;8.856;2024-02-26T09:48:12;10.60;99.90
6333;DHT22;3199;49.102;8.856;2024-02-26T09:50:41;10.70;99.90
6333;DHT22;3199;49.102;8.856;2024-02-26T09:53:08;10.70;99.90
6333;DHT22;3199;49.102;8.856;2024-02-26T09:55:36;10.70;99.90
6333;DHT22;3199;49.102;8.856;2024-02-26T09:58:01;10.60;99.90
6333;DHT22;3199;49.102;8.856;2024-02-26T10:00:31;10.60;99.90
6333;DHT22;3199;49.102;8.856;2024-02-26T10:03:03;10.60;99.90
6333;DHT22;3199;49.102;8.856;2024-02-26T10:05:29;10.60;99.90
6333;DHT22;3199;49.102;8.856;2024-02-26T10:07:56;10.60;99.90
6333;DHT22;3199;49.102;8.856;2024-02-26T10:10:23;10.60;99.90
6333;DHT22;3199;49.102;8.856;2024-02-26T10:12:48;10.60;99.90
6333;DHT22;3199;49.102;8.856;2024-02-26T10:15:14;10.60;99.90
6333;DHT22;3199;49.102;8.856;2024-02-26T10:17:40;10.60;99.90
6333;DHT22;3199;49.102;8.856;2024-02-26T10:20:18;10.70;99.90
6333;DHT22;3199;49.102;8.856;2024-02-26T10:22:47;10.80;99.90
6333;DHT22;3199;49.102;8.856;2024-02-26T10:25:12;10.80;99.90
6333;DHT22;3199;49.102;8.856;2024-02-26T10:27:40;10.80;99.90
6333;DHT22;3199;49.102;8.856;2024-02-26T10:30:17;10.90;99.90
6333;DHT22;3199;49.102;8.856;2024-02-26T10:32:47;10.90;99.90
6333;DHT22;3199;49.102;8.856;2024-02-26T10:35:16;11.00;99.90
6333;DHT22;3199;49.102;8.856;2024-02-26T10:37:43;11.00;99.90
6333;DHT22;3199;49.102;8.856;2024-02-26T10:40:13;11.00;99.90
6333;DHT22;3199;49.102;8.856;2024-02-26T10:42:40;11.00;99.90
6333;DHT22;3199;49.102;8.856;2024-02-26T10:45:06;11.00;99.90
6333;DHT22;3199;49.102;8.856;2024-02-26T10:47:33;11.10;99.90
6333;DHT22;3199;49.102;8.856;2024-02-26T10:50:01;11.10;99.90
6333;DHT22;3199;49.102;8.856;2024-02-26T10:52:27;11.20;99.90
6333;DHT22;3199;49.102;8.856;2024-02-26T10:54:56;11.50;99.90
6333;DHT22;3199;49.102;8.856;2024-02-26T10:57:24;11.80;99.90
6333;DHT22;3199;49.102;8.856;2024-02-26T10:59:53;12.00;99.90
6333;DHT22;3199;49.102;8.856;2024-02-26T11:02:20;12.20;99.90
6333;DHT22;3199;49.102;8.856;2024-02-26T11:04:46;12.30;99.90
6333;DHT22;3199;49.102;8.856;2024-02-26T11:07:13;12.30;99.90
6333;DHT22;3199;49.102;8.856;2024-02-26T11:09:40;12.30;99.90
6333;DHT22;3199;49.102;8.856;2024-02-26T11:12:11;12.40;99.90
6333;DHT22;3199;49.102;8.856;2024-02-26T11:14:39;12.40;99.90
6333;DHT22;3199;49.102;8.856;2024-02-26T11:17:07;12.60;99.90
6333;DHT22;3199;49.102;8.856;2024-02-26T11:19:35;12.90;99.90
6333;DHT22;3199;49.102;8.856;2024-02-26T11:22:01;13.00;99.90
6333;DHT22;3199;49.102;8.856;2024-02-26T11:24:27;13.00;99.90
6333;DHT22;3199;49.102;8.856;2024-02-26T11:26:55;13.10;99.90
6333;DHT22;3199;49.102;8.856;2024-02-26T11:29:26;13.20;99.90
6333;DHT22;3199;49.102;8.856;2024-02-26T11:31:53;13.30;99.90
6333;DHT22;3199;49.102;8.856;2024-02-26T11:34:19;13.40;99.90
6333;DHT22;3199;49.102;8.856;2024-02-26T11:36:46;13.50;99.90
6333;DHT22;3199;49.102;8.856;2024-02-26T11:39:12;13.60;99.90
6333;DHT22;3199;49.102;8.856;2024-02-26T11:41:38;13.90;99.90
6333;DHT22;3199;49.102;8.856;2024-02-26T11:44:04;14.00;99.90
6333;DHT22;3199;49.102;8.856;2024-02-26T11:46:42;14.10;99.90
6333;DHT22;3199;49.102;8.856;2024-02-26T11:49:29;14.10;99.90
6333;DHT22;3199;49.102;8.856;2024-02-26T11:51:56;14.10;99.90
6333;DHT22;3199;49.102;8.856;2024-02-26T11:54:50;14.00;99.90
6333;DHT22;3199;49.102;8.856;2024-02-26T11:57:30;14.00;99.90
6333;DHT22;3199;49.102;8.856;2024-02-26T12:00:18;14.10;99.90
6333;DHT22;3199;49.102;8.856;2024-02-26T12:02:50;14.10;99.90
6333;DHT22;3199;49.102;8.856;2024-02-26T12:05:21;14.30;99.90
6333;DHT22;3199;49.102;8.856;2024-02-26T12:07:59;14.50;99.90
6333;DHT22;3199;49.102;8.856;2024-02-26T12:10:31;14.70;99.90
6333;DHT22;3199;49.102;8.856;2024-02-26T12:13:10;15.00;99.90
6333;DHT22;3199;49.102;8.856;2024-02-26T12:15:41;15.10;99.20
6333;DHT22;3199;49.102;8.856;2024-02-26T12:18:08;15.10;99.20
6333;DHT22;3199;49.102;8.856;2024-02-26T12:20:38;15.20;99.20
6333;DHT22;3199;49.102;8.856;2024-02-26T12:23:04;15.30;99.00
6333;DHT22;3199;49.102;8.856;2024-02-26T12:25:30;15.30;99.00
6333;DHT22;3199;49.102;8.856;2024-02-26T12:27:57;15.20;98.10
6333;DHT22;3199;49.102;8.856;2024-02-26T12:30:23;15.10;97.90
6333;DHT22;3199;49.102;8.856;2024-02-26T12:32:51;15.10;99.00
6333;DHT22;3199;49.102;8.856;2024-02-26T12:35:17;15.30;99.60
6333;DHT22;3199;49.102;8.856;2024-02-26T12:37:43;15.50;99.40
6333;DHT22;3199;49.102;8.856;2024-02-26T12:40:10;15.60;98.80
6333;DHT22;3199;49.102;8.856;2024-02-26T12:42:36;15.60;98.00
6333;DHT22;3199;49.102;8.856;2024-02-26T12:45:09;15.50;97.60
6333;DHT22;3199;49.102;8.856;2024-02-26T12:47:39;15.40;97.60
6333;DHT22;3199;49.102;8.856;2024-02-26T12:50:05;15.30;97.30
6333;DHT22;3199;49.102;8.856;2024-02-26T12:52:35;15.10;97.10
6333;DHT22;3199;49.102;8.856;2024-02-26T12:55:02;15.10;96.90
6333;DHT22;3199;49.102;8.856;2024-02-26T12:57:30;15.10;97.00
6333;DHT22;3199;49.102;8.856;2024-02-26T12:59:57;15.20;97.50
6333;DHT22;3199;49.102;8.856;2024-02-26T13:02:23;15.30;97.50
6333;DHT22;3199;49.102;8.856;2024-02-26T13:04:48;15.20;97.50
6333;DHT22;3199;49.102;8.856;2024-02-26T13:07:14;15.20;97.70
6333;DHT22;3199;49.102;8.856;2024-02-26T13:09:40;15.30;97.60
6333;DHT22;3199;49.102;8.856;2024-02-26T13:12:06;15.40;96.50
6333;DHT22;3199;49.102;8.856;2024-02-26T13:14:32;15.50;96.80
6333;DHT22;3199;49.102;8.856;2024-02-26T13:16:59;15.50;97.10
6333;DHT22;3199;49.102;8.856;2024-02-26T13:19:25;15.60;97.70
6333;DHT22;3199;49.102;8.856;2024-02-26T13:21:51;15.50;97.40
6333;DHT22;3199;49.102;8.856;2024-02-26T13:24:19;15.40;97.30
6333;DHT22;3199;49.102;8.856;2024-02-26T13:26:45;15.20;97.40
6333;DHT22;3199;49.102;8.856;2024-02-26T13:29:20;15.10;96.70
6333;DHT22;3199;49.102;8.856;2024-02-26T13:31:45;15.00;96.90
6333;DHT22;3199;49.102;8.856;2024-02-26T13:34:24;14.90;97.20
6333;DHT22;3199;49.102;8.856;2024-02-26T13:36:54;14.80;97.30
6333;DHT22;3199;49.102;8.856;2024-02-26T13:39:23;14.80;97.60
6333;DHT22;3199;49.102;8.856;2024-02-26T13:41:50;14.60;97.90
6333;DHT22;3199;49.102;8.856;2024-02-26T13:44:15;14.50;98.00
6333;DHT22;3199;49.102;8.856;2024-02-26T13:46:41;14.40;98.20
6333;DHT22;3199;49.102;8.856;2024-02-26T13:49:08;14.40;98.00
6333;DHT22;3199;49.102;8.856;2024-02-26T13:51:34;14.40;98.10
6333;DHT22;3199;49.102;8.856;2024-02-26T13:54:01;14.50;97.90
6333;DHT22;3199;49.102;8.856;2024-02-26T13:56:27;14.50;97.70
6333;DHT22;3199;49.102;8.856;2024-02-26T13:58:52;14.60;97.50
6333;DHT22;3199;49.102;8.856;2024-02-26T14:01:18;14.60;97.30
6333;DHT22;3199;49.102;8.856;2024-02-26T14:03:43;14.50;97.40
6333;DHT22;3199;49.102;8.856;2024-02-26T14:06:09;14.50;97.40
6333;DHT22;3199;49.102;8.856;2024-02-26T14:08:35;14.50;97.40
6333;DHT22;3199;49.102;8.856;2024-02-26T14:11:00;14.40;97.60
6333;DHT22;3199;49.102;8.856;2024-02-26T14:13:26;14.50;97.80
6333;DHT22;3199;49.102;8.856;2024-02-26T14:15:51;14.50;97.90
6333;DHT22;3199;49.102;8.856;2024-02-26T14:18:17;14.60;97.40
6333;DHT22;3199;49.102;8.856;2024-02-26T14:20:42;14.60;97.10
6333;DHT22;3199;49.102;8.856;2024-02-26T14:23:10;14.50;96.50
6333;DHT22;3199;49.102;8.856;2024-02-26T14:25:35;14.40;96.80
6333;DHT22;3199;49.102;8.856;2024-02-26T14:28:02;14.50;96.90
6333;DHT22;3199;49.102;8.856;2024-02-26T14:30:28;14.50;96.60
6333;DHT22;3199;49.102;8.856;2024-02-26T14:32:54;14.50;96.70
6333;DHT22;3199;49.102;8.856;2024-02-26T14:35:20;14.60;97.00
6333;DHT22;3199;49.102;8.856;2024-02-26T14:37:46;14.60;96.90
6333;DHT22;3199;49.102;8.856;2024-02-26T14:40:13;14.60;96.80
6333;DHT22;3199;49.102;8.856;2024-02-26T14:42:39;14.60;96.40
6333;DHT22;3199;49.102;8.856;2024-02-26T14:45:05;14.50;96.10
6333;DHT22;3199;49.102;8.856;2024-02-26T14:47:34;14.50;96.30
6333;DHT22;3199;49.102;8.856;2024-02-26T14:49:59;14.50;96.30
6333;DHT22;3199;49.102;8.856;2024-02-26T14:52:25;14.40;96.20
6333;DHT22;3199;49.102;8.856;2024-02-26T14:54:50;14.40;96.40
6333;DHT22;3199;49.102;8.856;2024-02-26T14:57:16;14.30;96.70
6333;DHT22;3199;49.102;8.856;2024-02-26T14:59:42;14.30;96.80
6333;DHT22;3199;49.102;8.856;2024-02-26T15:02:09;14.30;97.00
6333;DHT22;3199;49.102;8.856;2024-02-26T15:04:35;14.30;96.90
6333;DHT22;3199;49.102;8.856;2024-02-26T15:07:01;14.30;97.00
6333;DHT22;3199;49.102;8.856;2024-02-26T15:09:26;14.20;96.60
6333;DHT22;3199;49.102;8.856;2024-02-26T15:11:52;14.20;96.40
6333;DHT22;3199;49.102;8.856;2024-02-26T15:14:17;14.20;96.50
6333;DHT22;3199;49.102;8.856;2024-02-26T15:16:43;14.10;97.20
6333;DHT22;3199;49.102;8.856;2024-02-26T15:19:09;14.10;96.70
6333;DHT22;3199;49.102;8.856;2024-02-26T15:21:41;14.10;96.80
6333;DHT22;3199;49.102;8.856;2024-02-26T15:24:07;14.10;96.40
6333;DHT22;3199;49.102;8.856;2024-02-26T15:26:32;14.10;96.40
6333;DHT22;3199;49.102;8.856;2024-02-26T15:28:58;14.10;96.40
6333;DHT22;3199;49.102;8.856;2024-02-26T15:31:23;14.00;96.30
6333;DHT22;3199;49.102;8.856;2024-02-26T15:33:49;14.00;96.10
6333;DHT22;3199;49.102;8.856;2024-02-26T15:36:14;14.00;96.20
6333;DHT22;3199;49.102;8.856;2024-02-26T15:38:40;13.90;96.20
6333;DHT22;3199;49.102;8.856;2024-02-26T15:41:12;14.00;96.30
6333;DHT22;3199;49.102;8.856;2024-02-26T15:43:38;13.90;96.60
6333;DHT22;3199;49.102;8.856;2024-02-26T15:46:04;13.90;96.80
6333;DHT22;3199;49.102;8.856;2024-02-26T15:48:31;13.90;96.60
6333;DHT22;3199;49.102;8.856;2024-02-26T15:50:57;13.80;96.80
6333;DHT22;3199;49.102;8.856;2024-02-26T15:53:22;13.80;96.80
6333;DHT22;3199;49.102;8.856;2024-02-26T15:55:48;13.80;96.80
6333;DHT22;3199;49.102;8.856;2024-02-26T15:58:13;13.80;96.90
6333;DHT22;3199;49.102;8.856;2024-02-26T16:00:42;13.80;97.00
6333;DHT22;3199;49.102;8.856;2024-02-26T16:03:09;13.70;97.30
6333;DHT22;3199;49.102;8.856;2024-02-26T16:05:35;13.70;97.60
6333;DHT22;3199;49.102;8.856;2024-02-26T16:08:10;13.70;97.80